Racecast

Cadence Schultz

Aquinas (Mich.) (MI) · Jr · MKO · Compare head to head

Athlete rating 111.0 2026 TF season
Best race 125.5 XC
Races 60
Seasons 7 2016 — 2026

RankedNation #5681·NAIA #410·WOLVERINE-HOOSIER #20·MI #206·Team #8 ?

Rating scale ?
Speed rating — all races

Cross Country

XC speed rating

2025 XC 103.1

Aquinas (Mich.) (MI) · Grade Jr

Date Meet Event Result Place Rating Difficulty PR/SR Flags
2025-11-07 Heritage Park (Adrian) OFFICIAL 6000m 24:15.6 39th · 8th on team 103.6 -0.004 ★CR SR CSR
2025-10-04 Seminole Valley Park 6000m 24:17.3 46th · 7th on team 102.4 -0.020 SR CSR
2025-09-26 Heritage Park 6000m 25:11.4 39th · 9th on team 102.6 +0.021 ★CR SR CSR
2025-09-13 Calvin University 5000m 19:31.5 14th · 5th on team 103.9 -0.015 ★PR ★CR SR CSR RSR

2024 XC 104.0

Aquinas (Mich.) (MI) · Grade So

Date Meet Event Result Place Rating Difficulty PR/SR Flags
2024-11-22 Gans Creek Recreation Area 6000m 24:34.2 262nd · 6th on team 104.7 +0.013
2024-11-08 Riverside Park 6000m 25:11.7 40th · 7th on team 99.9 -0.012 CSR
2024-10-26 Riverside Park 5000m 20:19.2 137th · 6th on team 102.4 -0.006 ★CR CSR
2024-10-05 Seminole Valley Park 6000m 23:38 25th · 5th on team 105.7 -0.020 ★PR ★CR SR CSR
2024-09-27 Gans Creek Recreation Area 6000m 23:55.3 113th · 4th on team 106.3 +0.013 PR ★CR SR CSR RSR
2024-09-13 Calvin College - Gainey Athletic Complex 5000m 20:07.1 19th · 5th on team 105.2 -0.002 PR ★CR SR CSR RSR

2023 XC 98.8

Aquinas (Mich.) (MI) · Grade Fr

Date Meet Event Result Place Rating Difficulty PR/SR Flags
2023-11-03 Riverside Park 6000m 24:34.6 23rd · 5th on team 104.2 -0.005 PR ★CR SR CSR RSR
2023-10-21 Riverside Park 5000m 20:55.8 123rd · 8th on team 100.4 -0.007 PR CR SR CSR RSR
2023-10-14 University Park Golf Course 5000m 21:37.1 66th · 10th on team 96.0 -0.018 PR ★CR SR CSR RSR
2023-09-29 E.P. Tom Sawyer Park 5000m 22:18.8 358th · 9th on team 94.7 +0.003 PR ★CR SR CSR RSR

2018 XC 123.7

Pinewood (was Kentwood) (MI) · Grade 8

Date Meet Event Result Place Rating Difficulty PR/SR Flags
2018-10-10 Holland Christian 3200m 13:26.9 28th · 2nd on team 123.1 -0.025 ★CR CSR
2018-10-06 Portage West MS 2500m 10:15.1 43rd · 1st on team 122.9 -0.012 ★PR ★CR SR CSR
2018-10-04 Wayland Middle School 3218m 13:49.7 19th · 1st on team 125.5 +0.029 ★PR ★CR ★R SR CSR RSR
2018-09-27 Pinewood Middle School 3200m 13:00 1st · 1st on team 124.3 -0.037 ★PR ★CR R SR CSR RSR
2018-09-15 Sparta HS 3200m 13:44.4 17th · 1st on team 122.4 -0.008 PR ★CR R SR CSR RSR

2017 XC 118.7

Pinewood (was Kentwood) (MI) · Grade 7

Date Meet Event Result Place Rating Difficulty PR/SR Flags
2017-10-14 Calvin College - Gainey Athletic Complex 3200m 14:45.7 29th · 1st on team 117.3 +0.028 ★CR CSR
2017-10-05 Wayland Middle School 3200m 14:22.5 34th · 1st on team 120.1 +0.029 PR ★CR R SR CSR RSR

2016 XC 111.3

Pinewood (was Kentwood) (MI) · Grade 6

Date Meet Event Result Place Rating Difficulty PR/SR Flags
2016-10-15 Calvin College - Gainey Athletic Complex 1600m 6:46 6th · 1st on team 110.7 -0.030 ★PR ★CR SR CSR
2016-10-01 Otsego HS 3218m 14:44.6 65th · 1st on team 112.0 -0.013 PR ★CR R SR CSR RSR

Track & Field

TF speed rating

2026 TF 109.2

Aquinas (Mich.) (MI) · Grade Jr

Date Meet Event Result Place Rating Difficulty PR/SR Flags
2026-04-30 Wolverine-Hoosier (WHAC) Outdoor Championships 800m 2:23.78 13th · 4th on team 110.2 -0.027
2026-04-25 GVSU Extra Weekend Meet 800m 2:19.88 3rd · 1st on team 112.4 -0.035 SR RSR
2026-04-18 Calvin Knight Invite 1500m 5:04.51 13th · 4th on team 108.2 -0.014 SR
2026-04-10 Meet results → Women's 800 Meters 2:21.38 26th · 4th on team 111.3 ★PR SR RSR
2026-04-03 GVSU Early Meet 800m 2:26.76 12th · 3rd on team 107.2 -0.035
2026-02-20 Wolverine-Hoosier (WHAC) Indoor Championships 600m 1:40.85 8th · 2nd on team -0.032 SR
2026-02-13 WHAC vs MIAA Challenge 1000m 3:14.69 3rd · 3rd on team 106.2 -0.032 ★PR SR
2026-02-07 GVSU Mike Lints Alumni Open 800m 2:23.61 19th · 3rd on team 108.8 -0.040 SR RSR
2026-01-30 Grand Rapids Sports Hall of Fame Classic 400m 1:03.91 6th · 3rd on team -0.032 SR
2026-01-23 Meet results → Women's 600 Meters 1:39.42 7th · 4th on team ★PR SR
2026-01-16 John Flaminio Classic 600m 1:42.57 3rd · 3rd on team -0.032 SR

2025 TF 111.2

Aquinas (Mich.) (MI) · Grade So

Date Meet Event Result Place Rating Difficulty PR/SR Flags
2025-05-09 St Francis Fighting Chance Invite 800m 2:20.39 29th · 4th on team 112.8 -0.027
2025-05-01 WHAC Championships 800m 2:22.15 9th · 3rd on team 112.1 -0.029
2025-04-26 GVSU Extra Weekend Meet 1500m 4:55.67 36th · 2nd on team 109.5 -0.035 ★PR SR
2025-04-18 Al Owens Classic 800m 2:17.98 6th · 1st on team 114.4 -0.035 ★PR SR RSR
2025-04-11 Davenport Invitational 1500m 4:56.33 3rd · 2nd on team 109.2 -0.027 PR SR
2025-04-04 GVSU Early Meet 800m 2:21.98 8th · 3rd on team 110.9 -0.035 SR RSR
2025-02-14 Wolverine-Hoosier (WHAC) Indoor Championships 600m 1:42.28 5th · 2nd on team -0.032
2025-02-08 GVSU Mike Lints Alumni Open 800m 2:22.47 14th · 3rd on team 109.8 -0.040 SR
2025-01-31 Meet results → Women's 800 Meters 2:22.27 3rd · 1st on team 110.6 PR SR RSR
2025-01-24 Grand Rapids Sports Hall of Fame Classic 400m 1:01.59 3rd · 1st on team -0.032 ★PR SR
2025-01-18 GVSU Bob Eubanks Open 600m 1:39.95 5th · 1st on team -0.040 ★PR SR
2025-01-11 John Flaminio Classic 600m 1:45.9 6th · 4th on team -0.032
2024-12-13 Maroon and White 600m 1:42.69 3rd · 3rd on team -0.032 SR

2024 TF 109.1

Aquinas (Mich.) (MI) · Grade Fr

Date Meet Event Result Place Rating Difficulty PR/SR Flags
2024-05-11 University of St. Francis Fighting Chance Invite 800m 2:22.82 30th · 2nd on team 111.6 -0.027 RSR
2024-05-03 Wolverine-Hoosier (WHAC) Outdoor Championships 800m 2:29.46 10th · 3rd on team 105.8 -0.027
2024-04-25 GVSU Extra Weekend Meet 800m 2:21.56 29th · 2nd on team 110.8 -0.035 PR SR
2024-04-20 Al Owens Classic 800m 2:22.85 12th · 3rd on team 111.2 -0.035 PR SR RSR
2024-04-14 Bison Outdoor Classic 800m 2:28.45 20th · 2nd on team 105.5 -0.041
2024-04-06 GVSU Early Meet 800m 2:23.56 14th · 2nd on team 109.7 -0.035 PR SR RSR
2024-02-17 WHAC Indoor 600m 1:40.85 6th · 2nd on team -0.032 PR SR
2024-02-09 AQ WHAC vs. MIAA 600m 1:41.33 1st · 1st on team -0.032 PR SR
2024-02-02 AQ GRSHOF Classic 600m 1:45.43 6th · 3rd on team -0.032
2024-01-26 Bill Clinger Classic 2024 800m 2:23.88 19th · 2nd on team 108.9 -0.040 PR SR RSR
2024-01-19 AQ John Flaminio 600m 1:42.98 3rd · 3rd on team -0.032
2024-01-13 GVSU Bob Eubanks Open 600m 1:42.75 10th · 2nd on team -0.040 PR SR
2023-12-15 Maroon and White Intersquad 600m 1:43.27 2nd · 2nd on team -0.032 PR SR